Time;durP1;ratioP1;P1;durP2;ratioP2;P2;SDS_P1;SDS_P2;PMS_P1;PMS_P2;Temp;Humidity;BMP_temperature;BMP_pressure;BME280_temperature;BME280_humidity;BME280_pressure;Samples;Min_cycle;Max_cycle;Signal;HPM_P1;HPM_P2
2024/03/09 00:01:54;;;;;;;;;;;;;;;;;;5025677;28;5002;-59
2024/03/09 00:04:22;;;;;;;;;;;;;;;;;;5031923;28;5013;-60
2024/03/09 00:06:47;;;;;;;;;;;;;;;;;;5024298;28;5098;-60
2024/03/09 00:09:13;;;;;;;;;;;;;;;;;;5032040;28;4758;-60
2024/03/09 00:11:39;;;;;;;;;;;;;;;;;;5038756;28;1165;-59
2024/03/09 00:14:06;;;;;;;;;;;;;;;;;;5032472;28;5223;-60
2024/03/09 00:16:31;;;;;;;;;;;;;;;;;;5052676;28;5071;-60
2024/03/09 00:18:58;;;;;;;;;;;;;;;;;;5025862;28;4758;-60
2024/03/09 00:21:23;;;;;;;;;;;;;;;;;;5025712;28;5126;-59
2024/03/09 00:23:50;;;;;;;;;;;;;;;;;;5029601;28;3441;-61
2024/03/09 00:26:16;;;;;;;;;;;;;;;;;;5027086;28;4940;-60
2024/03/09 00:28:41;;;;;;;;;;;;;;;;;;5026384;28;4998;-61
2024/03/09 00:31:06;;;;;;;;;;;;;;;;;;5033302;28;4542;-61
2024/03/09 00:33:32;;;;;;;;;;;;;;;;;;5028840;28;4671;-61
2024/03/09 00:35:58;;;;;;;;;;;;;;;;;;5009646;28;4556;-61
2024/03/09 00:38:24;;;;;;;;;;;;;;;;;;5032483;28;3400;-60
2024/03/09 00:40:49;;;;;;;;;;;;;;;;;;5031467;28;5133;-61
2024/03/09 00:43:15;;;;;;;;;;;;;;;;;;5011000;28;5099;-60
2024/03/09 00:45:40;;;;;;;;;;;;;;;;;;5025114;28;5108;-60
2024/03/09 00:48:06;;;;;;;;;;;;;;;;;;5023929;28;4509;-61
2024/03/09 00:50:31;;;;;;;;;;;;;;;;;;5030019;28;3496;-61
2024/03/09 00:52:56;;;;;;;;;;;;;;;;;;5031113;28;4697;-59
2024/03/09 00:55:22;;;;;;;;;;;;;;;;;;5026690;28;5090;-61
2024/03/09 00:57:50;;;;;;;;;;;;;;;;;;5024543;28;5109;-61
2024/03/09 01:00:16;;;;;;;;;;;;;;;;;;5030679;28;5009;-60
2024/03/09 01:02:43;;;;;;;;;;;;;;;;;;5024900;28;3399;-63
2024/03/09 01:05:09;;;;;;;;;;;;;;;;;;5032640;28;5071;-60
2024/03/09 01:07:34;;;;;;;;;;;;;;;;;;5033063;28;5212;-60
2024/03/09 01:10:00;;;;;;;;;;;;;;;;;;5032613;28;5127;-60
2024/03/09 01:12:28;;;;;;;;;;;;;;;;;;5030492;28;5039;-61
2024/03/09 01:14:54;;;;;;;;;;;;;;;;;;5034583;28;3311;-62
2024/03/09 01:17:23;;;;;;;;;;;;;;;;;;5030911;28;4423;-60
2024/03/09 01:19:49;;;;;;;;;;;;;;;;;;5029907;28;4976;-60
2024/03/09 01:22:15;;;;;;;;;;;;;;;;;;5031592;28;5337;-60
2024/03/09 01:24:41;;;;;;;;;;;;;;;;;;5034364;28;5049;-60
2024/03/09 01:27:06;;;;;;;;;;;;;;;;;;5026729;28;4942;-60
2024/03/09 01:29:32;;;;;;;;;;;;;;;;;;5032055;28;3279;-60
2024/03/09 01:32:01;;;;;;;;;;;;;;;;;;5036725;28;5246;-62
2024/03/09 01:34:27;;;;;;;;;;;;;;;;;;5025116;28;5232;-61
2024/03/09 01:36:53;;;;;;;;;;;;;;;;;;5029780;28;4557;-61
2024/03/09 01:39:18;;;;;;;;;;;;;;;;;;5030807;28;5205;-61
2024/03/09 01:41:44;;;;;;;;;;;;;;;;;;5028978;28;3397;-61
2024/03/09 01:44:10;;;;;;;;;;;;;;;;;;5021034;28;5101;-61
2024/03/09 01:46:35;;;;;;;;;;;;;;;;;;5030120;28;5171;-60
2024/03/09 01:49:01;;;;;;;;;;;;;;;;;;5026433;28;4519;-59
2024/03/09 01:51:26;;;;;;;;;;;;;;;;;;5032676;28;4684;-61
2024/03/09 01:53:53;;;;;;;;;;;;;;;;;;5005822;28;3394;-60
2024/03/09 01:56:19;;;;;;;;;;;;;;;;;;5049798;28;4975;-60
2024/03/09 01:58:45;;;;;;;;;;;;;;;;;;5026147;28;4529;-60
2024/03/09 02:01:23;;;;;;;;;;;;;;;;;;5029566;28;5101;-62
2024/03/09 02:03:53;;;;;;;;;;;;;;;;;;5012332;28;5062;-61
2024/03/09 02:06:29;;;;;;;;;;;;;;;;;;5026686;28;5593;-61
2024/03/09 02:08:58;;;;;;;;;;;;;;;;;;5045554;28;3959;-61
2024/03/09 02:11:23;;;;;;;;;;;;;;;;;;5056927;28;4433;-60
2024/03/09 02:13:50;;;;;;;;;;;;;;;;;;5043913;28;5109;-61
2024/03/09 02:16:15;;;;;;;;;;;;;;;;;;5052027;28;4511;-61
2024/03/09 02:18:44;;;;;;;;;;;;;;;;;;5047718;28;5170;-61
2024/03/09 02:21:12;;;;;;;;;;;;;;;;;;5047544;28;5030;-61
2024/03/09 02:23:37;;;;;;;;;;;;;;;;;;5047129;28;3495;-61
2024/03/09 02:26:02;;;;;;;;;;;;;;;;;;5061452;28;5020;-61
2024/03/09 02:28:28;;;;;;;;;;;;;;;;;;5060352;28;4937;-61
2024/03/09 02:30:56;;;;;;;;;;;;;;;;;;5042379;28;4991;-61
2024/03/09 02:33:21;;;;;;;;;;;;;;;;;;5042626;28;5031;-61
2024/03/09 02:35:47;;;;;;;;;;;;;;;;;;5051876;28;3343;-60
2024/03/09 02:38:13;;;;;;;;;;;;;;;;;;5049820;28;5005;-60
2024/03/09 02:40:38;;;;;;;;;;;;;;;;;;5051686;28;5046;-60
2024/03/09 02:43:04;;;;;;;;;;;;;;;;;;5059377;28;5163;-60
2024/03/09 02:45:29;;;;;;;;;;;;;;;;;;5054870;28;4671;-60
2024/03/09 02:47:55;;;;;;;;;;;;;;;;;;5048824;28;3151;-60
2024/03/09 02:50:23;;;;;;;;;;;;;;;;;;5051353;28;4676;-61
2024/03/09 02:52:48;;;;;;;;;;;;;;;;;;5054823;28;4927;-60
2024/03/09 02:55:14;;;;;;;;;;;;;;;;;;5048998;28;4886;-61
2024/03/09 02:57:40;;;;;;;;;;;;;;;;;;5058717;28;5097;-61
2024/03/09 03:00:07;;;;;;;;;;;;;;;;;;5054604;28;5079;-61
2024/03/09 03:05:17;;;;;;;;;;;;;;;;;;5050322;28;4560;-61
2024/03/09 03:07:42;;;;;;;;;;;;;;;;;;5054334;28;4882;-62
2024/03/09 03:10:08;;;;;;;;;;;;;;;;;;5039458;28;5095;-60
2024/03/09 03:12:33;;;;;;;;;;;;;;;;;;5048196;28;5065;-61
2024/03/09 03:14:59;;;;;;;;;;;;;;;;;;5052181;28;5371;-63
2024/03/09 03:17:26;;;;;;;;;;;;;;;;;;5050832;28;3557;-61
2024/03/09 03:19:51;;;;;;;;;;;;;;;;;;5026492;28;5128;-61
2024/03/09 03:22:16;;;;;;;;;;;;;;;;;;5057000;28;4625;-60
2024/03/09 03:24:43;;;;;;;;;;;;;;;;;;5049307;28;5238;-63
2024/03/09 03:27:09;;;;;;;;;;;;;;;;;;5050693;28;5011;-61
2024/03/09 03:29:35;;;;;;;;;;;;;;;;;;5042068;28;3308;-61
2024/03/09 03:32:01;;;;;;;;;;;;;;;;;;5044057;28;5140;-61
2024/03/09 03:34:27;;;;;;;;;;;;;;;;;;5036715;28;4724;-60
2024/03/09 03:36:52;;;;;;;;;;;;;;;;;;5054597;28;4514;-60
2024/03/09 03:39:18;;;;;;;;;;;;;;;;;;5043215;28;5050;-60
2024/03/09 03:41:43;;;;;;;;;;;;;;;;;;5047649;28;3376;-60
2024/03/09 03:44:09;;;;;;;;;;;;;;;;;;5045755;28;5080;-62
2024/03/09 03:46:35;;;;;;;;;;;;;;;;;;5045847;28;5384;-61
2024/03/09 03:49:01;;;;;;;;;;;;;;;;;;5047374;28;4915;-60
2024/03/09 03:51:27;;;;;;;;;;;;;;;;;;5050883;28;5023;-61
2024/03/09 03:53:54;;;;;;;;;;;;;;;;;;5049935;28;3435;-60
2024/03/09 03:56:24;;;;;;;;;;;;;;;;;;5041889;28;4421;-60
2024/03/09 03:58:49;;;;;;;;;;;;;;;;;;5043348;28;4447;-61
2024/03/09 04:01:14;;;;;;;;;;;;;;;;;;5050534;28;4527;-60
2024/03/09 04:03:40;;;;;;;;;;;;;;;;;;5051793;28;4921;-61
2024/03/09 04:06:05;;;;;;;;;;;;;;;;;;5049822;28;5104;-61
2024/03/09 04:08:31;;;;;;;;;;;;;;;;;;5037506;28;3519;-60
2024/03/09 04:10:56;;;;;;;;;;;;;;;;;;5029406;28;4975;-60
2024/03/09 04:13:23;;;;;;;;;;;;;;;;;;5037826;28;5226;-60
2024/03/09 04:15:49;;;;;;;;;;;;;;;;;;5053129;28;5166;-60
2024/03/09 04:18:14;;;;;;;;;;;;;;;;;;5031537;28;5018;-61
2024/03/09 04:20:40;;;;;;;;;;;;;;;;;;5042985;28;3334;-61
2024/03/09 04:23:07;;;;;;;;;;;;;;;;;;5040644;28;4968;-60
2024/03/09 04:25:35;;;;;;;;;;;;;;;;;;5042965;28;5126;-61
2024/03/09 04:28:01;;;;;;;;;;;;;;;;;;5040275;28;5091;-61
2024/03/09 04:30:26;;;;;;;;;;;;;;;;;;5030291;28;5019;-61
2024/03/09 04:32:55;;;;;;;;;;;;;;;;;;5031223;28;3262;-61
2024/03/09 04:35:20;;;;;;;;;;;;;;;;;;5028984;28;5008;-61
2024/03/09 04:37:46;;;;;;;;;;;;;;;;;;5035481;28;5030;-62
2024/03/09 04:40:15;;;;;;;;;;;;;;;;;;5029943;28;5061;-61
2024/03/09 04:42:46;;;;;;;;;;;;;;;;;;5042061;28;5135;-60
2024/03/09 04:45:11;;;;;;;;;;;;;;;;;;5035727;28;5086;-60
2024/03/09 04:47:37;;;;;;;;;;;;;;;;;;5032550;28;1130;-60
2024/03/09 04:50:03;;;;;;;;;;;;;;;;;;5037791;28;5105;-61
2024/03/09 04:52:28;;;;;;;;;;;;;;;;;;5037855;28;5242;-61
2024/03/09 04:54:54;;;;;;;;;;;;;;;;;;5036013;28;4533;-61
2024/03/09 04:57:24;;;;;;;;;;;;;;;;;;5027681;28;4532;-61
2024/03/09 04:59:50;;;;;;;;;;;;;;;;;;5047923;28;3431;-61
2024/03/09 05:02:15;;;;;;;;;;;;;;;;;;5034556;28;5015;-61
2024/03/09 05:04:40;;;;;;;;;;;;;;;;;;5028350;28;4474;-62
2024/03/09 05:07:06;;;;;;;;;;;;;;;;;;5037952;28;4850;-63
2024/03/09 05:09:31;;;;;;;;;;;;;;;;;;5033356;28;4717;-61
2024/03/09 05:11:57;;;;;;;;;;;;;;;;;;5039536;28;4554;-61
2024/03/09 05:14:23;;;;;;;;;;;;;;;;;;5031854;28;3447;-61
2024/03/09 05:16:48;;;;;;;;;;;;;;;;;;5035273;28;5148;-61
2024/03/09 05:19:14;;;;;;;;;;;;;;;;;;5034609;28;5154;-61
2024/03/09 05:21:41;;;;;;;;;;;;;;;;;;5028645;28;4950;-61
2024/03/09 05:24:06;;;;;;;;;;;;;;;;;;5030140;28;5424;-62
2024/03/09 05:26:32;;;;;;;;;;;;;;;;;;5033074;28;3368;-61
2024/03/09 05:29:00;;;;;;;;;;;;;;;;;;5013660;28;4573;-60
2024/03/09 05:31:30;;;;;;;;;;;;;;;;;;5035208;28;5078;-61
2024/03/09 05:33:56;;;;;;;;;;;;;;;;;;5036137;28;5267;-60
2024/03/09 05:36:21;;;;;;;;;;;;;;;;;;5037858;28;5104;-60
2024/03/09 05:38:50;;;;;;;;;;;;;;;;;;5037669;28;3397;-62
2024/03/09 05:41:19;;;;;;;;;;;;;;;;;;5027493;28;5010;-60
2024/03/09 05:43:46;;;;;;;;;;;;;;;;;;5030326;28;4941;-63
2024/03/09 05:46:15;;;;;;;;;;;;;;;;;;5030839;28;5067;-62
2024/03/09 05:48:41;;;;;;;;;;;;;;;;;;5032377;28;5063;-62
2024/03/09 05:51:09;;;;;;;;;;;;;;;;;;5034222;28;4549;-61
2024/03/09 05:53:36;;;;;;;;;;;;;;;;;;5033527;28;3318;-61
2024/03/09 05:56:02;;;;;;;;;;;;;;;;;;5024754;28;5060;-60
2024/03/09 05:58:27;;;;;;;;;;;;;;;;;;5031395;28;4524;-61
2024/03/09 06:00:53;;;;;;;;;;;;;;;;;;5031940;28;4690;-60
2024/03/09 06:03:18;;;;;;;;;;;;;;;;;;5029879;28;5228;-61
2024/03/09 06:05:45;;;;;;;;;;;;;;;;;;5034581;28;3352;-61
2024/03/09 06:08:10;;;;;;;;;;;;;;;;;;5035308;28;5183;-61
2024/03/09 06:10:36;;;;;;;;;;;;;;;;;;5031348;28;5028;-60
2024/03/09 06:13:01;;;;;;;;;;;;;;;;;;5031057;28;5093;-61
2024/03/09 06:15:27;;;;;;;;;;;;;;;;;;5053870;28;5063;-62
2024/03/09 06:17:55;;;;;;;;;;;;;;;;;;5039051;28;3269;-61
2024/03/09 06:20:21;;;;;;;;;;;;;;;;;;5032245;28;5279;-60
2024/03/09 06:22:46;;;;;;;;;;;;;;;;;;5035071;28;4994;-61
2024/03/09 06:25:22;;;;;;;;;;;;;;;;;;5032990;28;4990;-60
2024/03/09 06:27:48;;;;;;;;;;;;;;;;;;5039827;28;5221;-61
2024/03/09 06:30:15;;;;;;;;;;;;;;;;;;5033035;28;5256;-61
2024/03/09 06:32:41;;;;;;;;;;;;;;;;;;5034260;28;3648;-61
2024/03/09 06:35:07;;;;;;;;;;;;;;;;;;5027087;28;4871;-60
2024/03/09 06:37:32;;;;;;;;;;;;;;;;;;5031610;28;4942;-61
2024/03/09 06:39:58;;;;;;;;;;;;;;;;;;4996828;28;5194;-61
2024/03/09 06:42:24;;;;;;;;;;;;;;;;;;5029869;28;5195;-61
2024/03/09 06:44:49;;;;;;;;;;;;;;;;;;5034288;28;3480;-61
2024/03/09 06:47:15;;;;;;;;;;;;;;;;;;5028625;28;5155;-62
2024/03/09 06:49:40;;;;;;;;;;;;;;;;;;5035034;28;5074;-61
2024/03/09 06:52:06;;;;;;;;;;;;;;;;;;5027449;28;4595;-61
2024/03/09 06:54:31;;;;;;;;;;;;;;;;;;5038581;28;5437;-61
2024/03/09 06:56:56;;;;;;;;;;;;;;;;;;5026999;28;5089;-62
2024/03/09 06:59:22;;;;;;;;;;;;;;;;;;5028824;28;3303;-60
2024/03/09 07:01:50;;;;;;;;;;;;;;;;;;5019904;28;4624;-60
2024/03/09 07:04:18;;;;;;;;;;;;;;;;;;5034523;28;5217;-60
2024/03/09 07:06:44;;;;;;;;;;;;;;;;;;5035055;28;4518;-61
2024/03/09 07:09:11;;;;;;;;;;;;;;;;;;5058090;28;4981;-61
2024/03/09 07:11:37;;;;;;;;;;;;;;;;;;5052336;28;3440;-61
2024/03/09 07:14:03;;;;;;;;;;;;;;;;;;5044857;28;5000;-60
2024/03/09 07:16:29;;;;;;;;;;;;;;;;;;5067171;28;4975;-61
2024/03/09 07:18:54;;;;;;;;;;;;;;;;;;5053265;28;4741;-61
2024/03/09 07:21:22;;;;;;;;;;;;;;;;;;5053762;28;5193;-61
2024/03/09 07:23:47;;;;;;;;;;;;;;;;;;5060142;28;1085;-61
2024/03/09 07:26:13;;;;;;;;;;;;;;;;;;5050658;28;5116;-64
2024/03/09 07:28:39;;;;;;;;;;;;;;;;;;5050145;28;5002;-61
2024/03/09 07:31:08;;;;;;;;;;;;;;;;;;5045365;28;4946;-65
2024/03/09 07:33:35;;;;;;;;;;;;;;;;;;5044281;28;5039;-66
2024/03/09 07:36:00;;;;;;;;;;;;;;;;;;5043719;28;4532;-66
2024/03/09 07:38:26;;;;;;;;;;;;;;;;;;5049415;28;1148;-66
2024/03/09 07:40:51;;;;;;;;;;;;;;;;;;5061619;28;4469;-65
2024/03/09 07:43:18;;;;;;;;;;;;;;;;;;5036970;28;5092;-67
2024/03/09 07:45:43;;;;;;;;;;;;;;;;;;5045245;28;5070;-66
2024/03/09 07:48:09;;;;;;;;;;;;;;;;;;5046317;28;5397;-65
2024/03/09 07:50:34;;;;;;;;;;;;;;;;;;5045802;28;3265;-65
2024/03/09 07:53:00;;;;;;;;;;;;;;;;;;5048218;28;5849;-66
2024/03/09 07:55:26;;;;;;;;;;;;;;;;;;5040818;28;4530;-65
2024/03/09 07:57:54;;;;;;;;;;;;;;;;;;5045005;28;5159;-66
2024/03/09 08:00:22;;;;;;;;;;;;;;;;;;5062421;28;5076;-65
2024/03/09 08:02:47;;;;;;;;;;;;;;;;;;5061920;28;3203;-65
2024/03/09 08:05:14;;;;;;;;;;;;;;;;;;5048408;28;5055;-65
2024/03/09 08:07:43;;;;;;;;;;;;;;;;;;5059402;28;4673;-67
2024/03/09 08:10:09;;;;;;;;;;;;;;;;;;5023338;28;4965;-65
2024/03/09 08:12:34;;;;;;;;;;;;;;;;;;5048442;28;4730;-65
2024/03/09 08:15:00;;;;;;;;;;;;;;;;;;5030087;28;5179;-65
2024/03/09 08:17:26;;;;;;;;;;;;;;;;;;5048129;28;1260;-65
2024/03/09 08:19:51;;;;;;;;;;;;;;;;;;5039290;28;5289;-65
2024/03/09 08:22:17;;;;;;;;;;;;;;;;;;5043085;28;5954;-65
2024/03/09 08:24:42;;;;;;;;;;;;;;;;;;5042515;28;5106;-65
2024/03/09 08:27:08;;;;;;;;;;;;;;;;;;5042188;28;5166;-64
2024/03/09 08:29:33;;;;;;;;;;;;;;;;;;5043050;28;3402;-63
2024/03/09 08:32:00;;;;;;;;;;;;;;;;;;5060178;28;5081;-63
2024/03/09 08:34:25;;;;;;;;;;;;;;;;;;5046487;28;5169;-63
2024/03/09 08:36:51;;;;;;;;;;;;;;;;;;5046343;28;5169;-63
2024/03/09 08:39:18;;;;;;;;;;;;;;;;;;5045085;28;5144;-64
2024/03/09 08:41:45;;;;;;;;;;;;;;;;;;5035263;28;3383;-64
2024/03/09 08:44:13;;;;;;;;;;;;;;;;;;5042999;28;4936;-63
2024/03/09 08:46:38;;;;;;;;;;;;;;;;;;5044826;28;4992;-63
2024/03/09 08:49:04;;;;;;;;;;;;;;;;;;5043034;28;5059;-64
2024/03/09 08:51:29;;;;;;;;;;;;;;;;;;5061657;28;4714;-64
2024/03/09 08:53:56;;;;;;;;;;;;;;;;;;5043528;28;3371;-64
2024/03/09 08:56:22;;;;;;;;;;;;;;;;;;5039445;28;5185;-72
2024/03/09 08:58:47;;;;;;;;;;;;;;;;;;5037004;28;4939;-66
2024/03/09 09:01:12;;;;;;;;;;;;;;;;;;5039087;28;4687;-65
2024/03/09 09:03:38;;;;;;;;;;;;;;;;;;5039547;28;4496;-65
2024/03/09 09:06:03;;;;;;;;;;;;;;;;;;5039499;28;5485;-65
2024/03/09 09:08:29;;;;;;;;;;;;;;;;;;5010182;28;3599;-67
2024/03/09 09:10:55;;;;;;;;;;;;;;;;;;5018739;28;5102;-66
2024/03/09 09:13:23;;;;;;;;;;;;;;;;;;5009616;28;5163;-67
2024/03/09 09:15:49;;;;;;;;;;;;;;;;;;5017882;28;5041;-64
2024/03/09 09:18:15;;;;;;;;;;;;;;;;;;5018683;28;5108;-66
2024/03/09 09:20:41;;;;;;;;;;;;;;;;;;5023666;28;3685;-72
2024/03/09 09:23:08;;;;;;;;;;;;;;;;;;5020493;28;5049;-74
2024/03/09 09:25:33;;;;;;;;;;;;;;;;;;5023029;28;5178;-71
2024/03/09 09:27:59;;;;;;;;;;;;;;;;;;5026020;28;4848;-73
2024/03/09 09:30:26;;;;;;;;;;;;;;;;;;5023465;28;5334;-66
2024/03/09 09:32:51;;;;;;;;;;;;;;;;;;5023163;28;3581;-58
2024/03/09 09:35:17;;;;;;;;;;;;;;;;;;5024281;28;4975;-60
2024/03/09 09:37:42;;;;;;;;;;;;;;;;;;5022771;28;4515;-60
2024/03/09 09:40:08;;;;;;;;;;;;;;;;;;5023177;28;4554;-60
2024/03/09 09:42:34;;;;;;;;;;;;;;;;;;5019173;28;5097;-61
2024/03/09 09:44:59;;;;;;;;;;;;;;;;;;5026523;28;4543;-61
2024/03/09 09:47:29;;;;;;;;;;;;;;;;;;5027443;28;3402;-61
2024/03/09 09:49:54;;;;;;;;;;;;;;;;;;5016159;28;5041;-61
2024/03/09 09:52:21;;;;;;;;;;;;;;;;;;5022599;28;5695;-62
2024/03/09 09:54:46;;;;;;;;;;;;;;;;;;5027116;28;4970;-61
2024/03/09 09:57:11;;;;;;;;;;;;;;;;;;5035997;28;5084;-62
2024/03/09 09:59:37;;;;;;;;;;;;;;;;;;5025483;28;1124;-60
2024/03/09 10:02:03;;;;;;;;;;;;;;;;;;5026791;28;5208;-61
2024/03/09 10:04:28;;;;;;;;;;;;;;;;;;5026740;28;4995;-61
2024/03/09 10:07:04;;;;;;;;;;;;;;;;;;5027331;28;5121;-60
2024/03/09 10:09:30;;;;;;;;;;;;;;;;;;5056646;28;4546;-61
2024/03/09 10:11:56;;;;;;;;;;;;;;;;;;5046995;28;3425;-62
2024/03/09 10:14:28;;;;;;;;;;;;;;;;;;5049079;28;4338;-60
2024/03/09 10:16:53;;;;;;;;;;;;;;;;;;5043130;28;5128;-61
2024/03/09 10:19:18;;;;;;;;;;;;;;;;;;5047179;28;4893;-61
2024/03/09 10:21:45;;;;;;;;;;;;;;;;;;5061846;28;5048;-61
2024/03/09 10:24:11;;;;;;;;;;;;;;;;;;5030070;28;5017;-61
2024/03/09 10:26:37;;;;;;;;;;;;;;;;;;5038339;28;3336;-61
2024/03/09 10:29:03;;;;;;;;;;;;;;;;;;5045384;28;4965;-62
2024/03/09 10:31:29;;;;;;;;;;;;;;;;;;5045401;28;5286;-61
2024/03/09 10:33:54;;;;;;;;;;;;;;;;;;5042664;28;5110;-61
2024/03/09 10:36:23;;;;;;;;;;;;;;;;;;5045377;28;5370;-62
2024/03/09 10:38:49;;;;;;;;;;;;;;;;;;5049767;28;1201;-61
2024/03/09 10:41:16;;;;;;;;;;;;;;;;;;5046450;28;5031;-62
2024/03/09 10:43:42;;;;;;;;;;;;;;;;;;5045065;28;5060;-61
2024/03/09 10:46:08;;;;;;;;;;;;;;;;;;5048928;28;4893;-59
2024/03/09 10:48:33;;;;;;;;;;;;;;;;;;5041636;28;5138;-59
2024/03/09 10:50:59;;;;;;;;;;;;;;;;;;5058819;28;4487;-59
2024/03/09 10:53:35;;;;;;;;;;;;;;;;;;5041833;28;3221;-61
2024/03/09 10:56:19;;;;;;;;;;;;;;;;;;5059691;28;5096;-59
2024/03/09 10:58:44;;;;;;;;;;;;;;;;;;5063852;28;4652;-60
2024/03/09 11:01:10;;;;;;;;;;;;;;;;;;5030208;28;5128;-59
2024/03/09 11:03:36;;;;;;;;;;;;;;;;;;5047123;28;5199;-61
2024/03/09 11:06:02;;;;;;;;;;;;;;;;;;5063891;28;4480;-58
2024/03/09 11:08:27;;;;;;;;;;;;;;;;;;5049491;28;1486;-61
2024/03/09 11:10:53;;;;;;;;;;;;;;;;;;5042639;28;4845;-61
2024/03/09 11:13:18;;;;;;;;;;;;;;;;;;5063357;28;5074;-61
2024/03/09 11:15:45;;;;;;;;;;;;;;;;;;5048502;28;4943;-62
2024/03/09 11:18:11;;;;;;;;;;;;;;;;;;5062850;28;4977;-61
2024/03/09 11:21:02;;;;;;;;;;;;;;;;;;5046105;28;3280;-59
2024/03/09 11:23:31;;;;;;;;;;;;;;;;;;5060730;28;5120;-60
2024/03/09 11:25:57;;;;;;;;;;;;;;;;;;5062008;28;4866;-60
2024/03/09 11:28:43;;;;;;;;;;;;;;;;;;5039087;28;4768;-59
2024/03/09 11:31:13;;;;;;;;;;;;;;;;;;5035875;28;5093;-59
2024/03/09 11:33:49;;;;;;;;;;;;;;;;;;5046728;28;4597;-60
2024/03/09 11:36:33;;;;;;;;;;;;;;;;;;5064083;28;5052;-60
2024/03/09 11:39:01;;;;;;;;;;;;;;;;;;5045946;28;5534;-59
2024/03/09 11:41:26;;;;;;;;;;;;;;;;;;5047146;28;3324;-60
2024/03/09 11:43:52;;;;;;;;;;;;;;;;;;5048579;28;4862;-60
2024/03/09 11:46:18;;;;;;;;;;;;;;;;;;5046780;28;5089;-59
2024/03/09 11:48:43;;;;;;;;;;;;;;;;;;5040795;28;4518;-60
2024/03/09 11:51:10;;;;;;;;;;;;;;;;;;5043126;28;5107;-60
2024/03/09 11:53:37;;;;;;;;;;;;;;;;;;5030029;28;1207;-60
2024/03/09 11:56:03;;;;;;;;;;;;;;;;;;5041075;28;5111;-59
2024/03/09 11:58:30;;;;;;;;;;;;;;;;;;5047616;28;5097;-60
2024/03/09 12:00:56;;;;;;;;;;;;;;;;;;5042317;28;5111;-60
2024/03/09 12:03:21;;;;;;;;;;;;;;;;;;5044666;28;5196;-60
2024/03/09 12:05:47;;;;;;;;;;;;;;;;;;5040936;28;961;-60
2024/03/09 12:08:12;;;;;;;;;;;;;;;;;;5057332;28;5086;-60
2024/03/09 12:10:37;;;;;;;;;;;;;;;;;;5024711;28;5158;-59
2024/03/09 12:13:04;;;;;;;;;;;;;;;;;;5045482;28;5020;-61
2024/03/09 12:15:30;;;;;;;;;;;;;;;;;;5047565;28;4662;-61
2024/03/09 12:17:55;;;;;;;;;;;;;;;;;;5047257;28;2074;-61
2024/03/09 12:20:20;;;;;;;;;;;;;;;;;;5042937;28;4912;-62
2024/03/09 12:22:46;;;;;;;;;;;;;;;;;;5059795;28;5063;-61
2024/03/09 12:25:12;;;;;;;;;;;;;;;;;;5061055;28;5081;-61
2024/03/09 12:27:39;;;;;;;;;;;;;;;;;;5048746;28;4459;-61
2024/03/09 12:30:08;;;;;;;;;;;;;;;;;;5047792;28;5183;-61
2024/03/09 12:32:34;;;;;;;;;;;;;;;;;;5043444;28;3356;-61
2024/03/09 12:35:00;;;;;;;;;;;;;;;;;;5037235;28;4747;-61
2024/03/09 12:37:29;;;;;;;;;;;;;;;;;;5047262;28;4920;-60
2024/03/09 12:40:19;;;;;;;;;;;;;;;;;;5043276;28;5078;-60
2024/03/09 12:42:48;;;;;;;;;;;;;;;;;;5040369;28;4739;-60
2024/03/09 12:45:23;;;;;;;;;;;;;;;;;;5047395;28;5010;-60
2024/03/09 12:47:50;;;;;;;;;;;;;;;;;;5046788;28;1240;-60
2024/03/09 12:50:19;;;;;;;;;;;;;;;;;;5038630;28;4589;-60
2024/03/09 12:52:45;;;;;;;;;;;;;;;;;;5044925;28;5076;-61
2024/03/09 12:55:15;;;;;;;;;;;;;;;;;;5045428;28;4467;-60
2024/03/09 12:57:41;;;;;;;;;;;;;;;;;;5044027;28;5166;-59
2024/03/09 13:00:11;;;;;;;;;;;;;;;;;;5044073;28;5175;-60
2024/03/09 13:02:37;;;;;;;;;;;;;;;;;;5047564;28;1910;-59
2024/03/09 13:05:04;;;;;;;;;;;;;;;;;;5046952;28;4868;-60
2024/03/09 13:07:29;;;;;;;;;;;;;;;;;;5038245;28;4978;-59
2024/03/09 13:09:55;;;;;;;;;;;;;;;;;;5042135;28;4982;-60
2024/03/09 13:12:24;;;;;;;;;;;;;;;;;;5047887;28;5038;-60
2024/03/09 13:14:51;;;;;;;;;;;;;;;;;;5062635;28;1204;-60
2024/03/09 13:17:17;;;;;;;;;;;;;;;;;;5055438;28;4907;-60
2024/03/09 13:19:44;;;;;;;;;;;;;;;;;;5044256;28;4744;-62
2024/03/09 13:22:11;;;;;;;;;;;;;;;;;;5041673;28;5264;-61
2024/03/09 13:24:37;;;;;;;;;;;;;;;;;;5043737;28;4691;-60
2024/03/09 13:27:02;;;;;;;;;;;;;;;;;;5044134;28;4710;-60
2024/03/09 13:29:27;;;;;;;;;;;;;;;;;;5047517;28;1284;-60
2024/03/09 13:31:53;;;;;;;;;;;;;;;;;;5044784;28;4438;-60
2024/03/09 13:34:18;;;;;;;;;;;;;;;;;;5038340;28;4495;-60
2024/03/09 13:36:45;;;;;;;;;;;;;;;;;;5046762;28;5048;-61
2024/03/09 13:39:17;;;;;;;;;;;;;;;;;;5046441;28;5180;-60
2024/03/09 13:41:44;;;;;;;;;;;;;;;;;;5043864;28;3397;-60
2024/03/09 13:44:10;;;;;;;;;;;;;;;;;;5055393;28;4488;-60
2024/03/09 13:46:35;;;;;;;;;;;;;;;;;;5048159;28;4968;-60
2024/03/09 13:49:11;;;;;;;;;;;;;;;;;;5044557;28;4957;-60
2024/03/09 13:51:39;;;;;;;;;;;;;;;;;;5028286;28;4577;-60
2024/03/09 13:54:07;;;;;;;;;;;;;;;;;;5049959;28;5160;-60
2024/03/09 13:56:33;;;;;;;;;;;;;;;;;;5049070;28;3342;-60
2024/03/09 13:58:58;;;;;;;;;;;;;;;;;;5050136;28;5182;-60
2024/03/09 14:01:24;;;;;;;;;;;;;;;;;;5042355;28;4483;-61
2024/03/09 14:03:49;;;;;;;;;;;;;;;;;;5050514;28;4490;-61
2024/03/09 14:06:15;;;;;;;;;;;;;;;;;;5050312;28;4468;-61
2024/03/09 14:08:42;;;;;;;;;;;;;;;;;;5065698;28;1141;-61
2024/03/09 14:11:08;;;;;;;;;;;;;;;;;;5037944;28;5041;-61
2024/03/09 14:13:35;;;;;;;;;;;;;;;;;;5045195;28;5432;-61
2024/03/09 14:16:07;;;;;;;;;;;;;;;;;;5029902;28;4665;-61
2024/03/09 14:18:32;;;;;;;;;;;;;;;;;;5047531;28;4710;-60
2024/03/09 14:20:58;;;;;;;;;;;;;;;;;;5042750;28;5960;-60
2024/03/09 14:23:23;;;;;;;;;;;;;;;;;;5049761;28;3035;-60
2024/03/09 14:25:51;;;;;;;;;;;;;;;;;;5044599;28;4953;-61
2024/03/09 14:28:17;;;;;;;;;;;;;;;;;;5040802;28;5117;-61
2024/03/09 14:30:44;;;;;;;;;;;;;;;;;;5046999;28;4535;-60
2024/03/09 14:33:12;;;;;;;;;;;;;;;;;;5050149;28;4491;-61
2024/03/09 14:35:37;;;;;;;;;;;;;;;;;;5050506;28;1326;-60
2024/03/09 14:38:04;;;;;;;;;;;;;;;;;;5042616;28;5609;-61
2024/03/09 14:40:34;;;;;;;;;;;;;;;;;;5043485;28;5233;-60
2024/03/09 14:43:12;;;;;;;;;;;;;;;;;;5048151;28;5083;-61
2024/03/09 14:45:38;;;;;;;;;;;;;;;;;;5046313;28;4508;-61
2024/03/09 14:48:11;;;;;;;;;;;;;;;;;;5030714;28;5302;-61
2024/03/09 14:50:36;;;;;;;;;;;;;;;;;;5049629;28;1508;-60
2024/03/09 14:53:08;;;;;;;;;;;;;;;;;;5053372;28;5624;-61
2024/03/09 14:55:33;;;;;;;;;;;;;;;;;;5045283;28;4988;-60
2024/03/09 14:58:01;;;;;;;;;;;;;;;;;;5049011;28;4880;-61
2024/03/09 15:01:12;;;;;;;;;;;;;;;;;;5049286;28;5075;-60
2024/03/09 15:03:16;;;;;;;;;;;;;;;;;;5032221;28;4537;-60
2024/03/09 15:05:42;;;;;;;;;;;;;;;;;;5057584;28;1222;-61
2024/03/09 15:08:10;;;;;;;;;;;;;;;;;;5049497;28;5040;-60
2024/03/09 15:10:38;;;;;;;;;;;;;;;;;;5045682;28;5030;-61
2024/03/09 15:13:04;;;;;;;;;;;;;;;;;;5043157;28;5490;-61
2024/03/09 15:15:31;;;;;;;;;;;;;;;;;;5046722;28;5063;-61
2024/03/09 15:17:58;;;;;;;;;;;;;;;;;;5048871;28;3221;-60
2024/03/09 15:20:25;;;;;;;;;;;;;;;;;;5048568;28;5115;-61
2024/03/09 15:22:57;;;;;;;;;;;;;;;;;;5046823;28;4837;-61
2024/03/09 15:25:26;;;;;;;;;;;;;;;;;;5046521;28;4984;-60
2024/03/09 15:27:54;;;;;;;;;;;;;;;;;;5047010;28;4533;-60
2024/03/09 15:30:21;;;;;;;;;;;;;;;;;;5047953;28;5281;-60
2024/03/09 15:32:47;;;;;;;;;;;;;;;;;;5039340;28;3229;-61
2024/03/09 15:35:15;;;;;;;;;;;;;;;;;;5048883;28;5036;-61
2024/03/09 15:37:41;;;;;;;;;;;;;;;;;;5048534;28;5104;-61
2024/03/09 15:40:12;;;;;;;;;;;;;;;;;;5044227;28;4500;-61
2024/03/09 15:42:37;;;;;;;;;;;;;;;;;;5046449;28;5140;-60
2024/03/09 15:45:04;;;;;;;;;;;;;;;;;;5047841;28;5478;-61
2024/03/09 15:47:29;;;;;;;;;;;;;;;;;;5048555;28;1096;-60
2024/03/09 15:49:55;;;;;;;;;;;;;;;;;;5046288;28;5204;-60
2024/03/09 15:52:20;;;;;;;;;;;;;;;;;;5048274;28;4829;-61
2024/03/09 15:54:51;;;;;;;;;;;;;;;;;;5047703;28;4653;-61
2024/03/09 15:57:18;;;;;;;;;;;;;;;;;;5045336;28;5017;-61
2024/03/09 15:59:45;;;;;;;;;;;;;;;;;;5044334;28;3363;-61
2024/03/09 16:02:10;;;;;;;;;;;;;;;;;;5047799;28;4540;-61
2024/03/09 16:04:36;;;;;;;;;;;;;;;;;;5048096;28;5028;-60
2024/03/09 16:07:03;;;;;;;;;;;;;;;;;;5046335;28;4690;-61
2024/03/09 16:09:30;;;;;;;;;;;;;;;;;;5039883;28;4996;-61
2024/03/09 16:11:55;;;;;;;;;;;;;;;;;;5046635;28;3688;-60
2024/03/09 16:14:20;;;;;;;;;;;;;;;;;;5044883;28;4813;-60
2024/03/09 16:16:46;;;;;;;;;;;;;;;;;;5043719;28;4770;-61
2024/03/09 16:19:11;;;;;;;;;;;;;;;;;;5042378;28;5036;-60
2024/03/09 16:21:41;;;;;;;;;;;;;;;;;;5047772;28;4547;-60
2024/03/09 16:24:07;;;;;;;;;;;;;;;;;;5046005;28;5080;-60
2024/03/09 16:26:33;;;;;;;;;;;;;;;;;;5028012;28;3589;-60
2024/03/09 16:28:59;;;;;;;;;;;;;;;;;;5047063;28;4628;-61
2024/03/09 16:31:25;;;;;;;;;;;;;;;;;;5047524;28;4923;-61
2024/03/09 16:33:50;;;;;;;;;;;;;;;;;;5041226;28;5034;-61
2024/03/09 16:36:15;;;;;;;;;;;;;;;;;;5040681;28;5043;-62
2024/03/09 16:38:42;;;;;;;;;;;;;;;;;;5034306;28;3589;-60
2024/03/09 16:41:08;;;;;;;;;;;;;;;;;;5045975;28;5126;-60
2024/03/09 16:43:34;;;;;;;;;;;;;;;;;;5057768;28;5161;-60
2024/03/09 16:45:59;;;;;;;;;;;;;;;;;;5023469;28;4995;-60
2024/03/09 16:48:27;;;;;;;;;;;;;;;;;;5041140;28;5313;-60
2024/03/09 16:50:55;;;;;;;;;;;;;;;;;;5047722;28;1243;-60
2024/03/09 16:53:21;;;;;;;;;;;;;;;;;;5042354;28;5209;-60
2024/03/09 16:55:47;;;;;;;;;;;;;;;;;;5044646;28;5279;-60
2024/03/09 16:58:13;;;;;;;;;;;;;;;;;;5046927;28;4994;-60
2024/03/09 17:00:41;;;;;;;;;;;;;;;;;;5044454;28;4976;-60
2024/03/09 17:03:09;;;;;;;;;;;;;;;;;;5041949;28;5061;-59